Time;durP1;ratioP1;P1;durP2;ratioP2;P2;SDS_P1;SDS_P2;PMS_P1;PMS_P2;Temp;Humidity;BMP_temperature;BMP_pressure;BME280_temperature;BME280_humidity;BME280_pressure;Samples;Min_cycle;Max_cycle;Signal;HPM_P1;HPM_P2
2022/05/01 00:00:06;;;;;;;10.70;7.90;;;;;;101097.70;;;;107270;1274;65551;-35
2022/05/01 00:02:54;;;;;;;9.30;7.20;;;;;;101100.29;;;;107255;1274;65825;-28
2022/05/01 00:05:22;;;;;;;9.50;7.50;;;;;;101101.86;;;;107257;1274;66982;-30
2022/05/01 00:07:49;;;;;;;10.10;8.30;;;;;;101101.20;;;;107237;1274;65580;-35
2022/05/01 00:10:23;;;;;;;10.80;8.50;;;;;;101100.05;;;;107237;1274;65711;-35
2022/05/01 00:12:53;;;;;;;9.70;8.40;;;;;;101099.14;;;;107250;1274;65529;-36
2022/05/01 00:15:23;;;;;;;10.90;8.70;;;;;;101096.97;;;;107283;1274;65700;-35
2022/05/01 00:17:50;;;;;;;11.00;8.50;;;;;;101096.39;;;;107276;1274;66979;-35
2022/05/01 00:20:20;;;;;;;11.00;9.10;;;;;;101096.98;;;;107235;1274;65580;-34
2022/05/01 00:22:47;;;;;;;11.70;9.40;;;;;;101095.65;;;;107208;1274;65971;-30
2022/05/01 00:25:17;;;;;;;11.40;9.20;;;;;;101095.94;;;;107134;1274;65713;-30
2022/05/01 00:27:45;;;;;;;11.90;9.00;;;;;;101096.89;;;;107274;1273;65584;-34
2022/05/01 00:30:13;;;;;;;10.80;9.00;;;;;;101097.72;;;;107267;1274;67258;-34
2022/05/01 00:38:16;;;;;;;11.70;10.00;;;;;;101095.99;;;;107243;1274;65668;-35
2022/05/01 00:40:43;;;;;;;13.60;9.40;;;;;;101094.44;;;;107249;1274;65690;-44
2022/05/01 00:43:14;;;;;;;11.20;9.10;;;;;;101091.16;;;;107276;1274;66742;-36
2022/05/01 00:45:44;;;;;;;11.80;9.70;;;;;;101093.05;;;;107266;1274;65650;-31
2022/05/01 00:48:11;;;;;;;12.60;9.50;;;;;;101089.61;;;;107254;1274;65577;-30
2022/05/01 00:50:43;;;;;;;11.80;9.90;;;;;;101089.77;;;;107240;1274;66799;-35
2022/05/01 00:53:10;;;;;;;11.00;9.80;;;;;;101087.33;;;;107271;1274;65570;-34
2022/05/01 00:55:41;;;;;;;11.60;9.50;;;;;;101087.56;;;;107263;1274;66253;-36
2022/05/01 00:58:08;;;;;;;12.00;10.40;;;;;;101085.63;;;;107280;1274;66241;-31
2022/05/01 01:00:38;;;;;;;13.90;10.30;;;;;;101083.77;;;;107247;1274;65672;-29
2022/05/01 01:03:06;;;;;;;11.70;9.70;;;;;;101084.66;;;;107131;1274;65617;-35
2022/05/01 01:05:36;;;;;;;12.50;10.10;;;;;;101085.20;;;;107256;1274;65596;-35
2022/05/01 01:08:06;;;;;;;14.00;10.20;;;;;;101083.98;;;;107260;1274;65695;-28
2022/05/01 01:10:37;;;;;;;11.50;10.20;;;;;;101083.15;;;;107240;1274;65544;-27
2022/05/01 01:13:07;;;;;;;13.70;10.90;;;;;;101085.95;;;;107228;1274;65580;-29
2022/05/01 01:15:36;;;;;;;12.70;10.10;;;;;;101086.54;;;;107229;1274;65567;-28
2022/05/01 01:18:03;;;;;;;12.40;10.00;;;;;;101084.80;;;;107255;1274;65663;-29
2022/05/01 01:20:31;;;;;;;12.90;10.80;;;;;;101084.51;;;;107263;1274;66082;-31
2022/05/01 01:23:01;;;;;;;12.10;10.70;;;;;;101086.48;;;;107225;1274;65726;-35
2022/05/01 01:25:32;;;;;;;11.20;9.80;;;;;;101084.46;;;;107266;1271;65627;-35
2022/05/01 01:28:02;;;;;;;13.10;10.60;;;;;;101084.19;;;;107227;1274;65711;-34
2022/05/01 01:33:21;;;;;;;12.30;10.70;;;;;;101084.33;;;;107251;1274;68189;-34
2022/05/01 01:35:50;;;;;;;13.30;11.20;;;;;;101088.44;;;;107269;1274;65701;-34
2022/05/01 01:38:20;;;;;;;12.40;10.70;;;;;;101086.95;;;;107266;1273;65553;-36
2022/05/01 01:40:54;;;;;;;11.70;10.30;;;;;;101086.20;;;;107249;1274;65581;-35
2022/05/01 01:43:27;;;;;;;13.40;10.90;;;;;;101083.60;;;;107287;1274;65789;-34
2022/05/01 01:45:55;;;;;;;12.90;11.00;;;;;;101082.10;;;;107267;1274;68460;-35
2022/05/01 01:48:26;;;;;;;14.90;11.80;;;;;;101079.27;;;;107288;1274;65739;-30
2022/05/01 01:51:02;;;;;;;13.50;11.30;;;;;;101071.30;;;;107245;1274;65553;-34
2022/05/01 01:53:31;;;;;;;13.80;11.40;;;;;;101072.14;;;;107227;1274;65662;-34
2022/05/01 01:56:00;;;;;;;12.40;11.00;;;;;;101072.64;;;;107295;1274;65694;-42
2022/05/01 01:58:31;;;;;;;12.10;10.60;;;;;;101073.26;;;;107273;1274;65701;-29
2022/05/01 02:00:59;;;;;;;14.10;11.80;;;;;;101069.44;;;;107237;1274;65801;-29
2022/05/01 02:03:30;;;;;;;14.00;11.10;;;;;;101067.84;;;;107247;1274;65573;-29
2022/05/01 02:05:57;;;;;;;13.60;11.70;;;;;;101065.67;;;;107226;1274;65603;-29
2022/05/01 02:08:28;;;;;;;15.60;12.10;;;;;;101065.11;;;;107257;1274;65671;-35
2022/05/01 02:10:55;;;;;;;14.70;12.00;;;;;;101063.75;;;;107257;1274;67335;-35
2022/05/01 02:13:22;;;;;;;13.60;11.50;;;;;;101067.04;;;;107218;1274;65704;-29
2022/05/01 02:15:50;;;;;;;13.40;12.00;;;;;;101067.50;;;;107263;1274;65710;-28
2022/05/01 02:18:17;;;;;;;14.50;11.60;;;;;;101070.66;;;;107229;1274;65717;-35
2022/05/01 02:23:33;;;;;;;14.10;12.50;;;;;;101070.04;;;;107255;1273;68734;-35
2022/05/01 02:26:01;;;;;;;14.00;12.00;;;;;;101070.15;;;;107222;1274;65562;-34
2022/05/01 02:28:32;;;;;;;14.30;12.30;;;;;;101073.27;;;;107204;1274;65548;-31
2022/05/01 02:30:59;;;;;;;13.70;12.10;;;;;;101075.44;;;;107242;1274;65574;-30
2022/05/01 02:33:26;;;;;;;13.20;11.60;;;;;;101078.34;;;;107266;1274;65554;-30
2022/05/01 02:35:53;;;;;;;14.50;12.00;;;;;;101081.42;;;;107266;1272;65683;-28
2022/05/01 02:38:21;;;;;;;14.40;11.80;;;;;;101075.41;;;;107253;1273;65634;-47
2022/05/01 02:40:48;;;;;;;13.70;12.20;;;;;;101078.53;;;;107245;1274;65592;-38
2022/05/01 02:43:18;;;;;;;14.60;12.60;;;;;;101076.16;;;;107250;1274;65555;-31
2022/05/01 02:45:45;;;;;;;13.00;11.60;;;;;;101072.27;;;;107275;1274;65586;-32
2022/05/01 02:48:15;;;;;;;14.00;12.10;;;;;;101072.95;;;;107258;1274;65708;-31
2022/05/01 02:50:42;;;;;;;13.90;11.80;;;;;;101071.67;;;;107222;1274;65528;-29
2022/05/01 02:53:12;;;;;;;15.40;12.50;;;;;;101074.69;;;;107235;1274;66595;-33
2022/05/01 02:55:40;;;;;;;13.70;12.30;;;;;;101073.27;;;;107284;1275;65735;-29
2022/05/01 02:58:10;;;;;;;14.40;12.60;;;;;;101074.10;;;;107271;1275;65599;-37
2022/05/01 03:00:37;;;;;;;13.30;11.90;;;;;;101076.73;;;;107256;1274;67772;-29
2022/05/01 03:03:07;;;;;;;14.70;12.90;;;;;;101080.21;;;;107281;1274;66017;-35
2022/05/01 03:05:34;;;;;;;14.00;12.00;;;;;;101079.60;;;;107259;1274;65785;-35
2022/05/01 03:08:06;;;;;;;15.40;12.00;;;;;;101078.58;;;;107234;1274;65711;-34
2022/05/01 03:10:33;;;;;;;14.30;12.20;;;;;;101077.85;;;;107269;1274;65688;-34
2022/05/01 03:13:04;;;;;;;14.30;12.10;;;;;;101077.21;;;;107300;1274;66768;-33
2022/05/01 03:15:31;;;;;;;13.90;12.10;;;;;;101077.59;;;;107273;1274;65681;-37
2022/05/01 03:23:38;;;;;;;13.90;11.90;;;;;;101081.27;;;;107252;1274;65772;-30
2022/05/01 03:26:08;;;;;;;13.30;11.90;;;;;;101080.60;;;;107271;1274;68490;-29
2022/05/01 03:28:39;;;;;;;13.70;12.00;;;;;;101084.16;;;;107203;1274;65665;-35
2022/05/01 03:31:09;;;;;;;14.80;12.70;;;;;;101079.69;;;;107242;1274;65883;-38
2022/05/01 03:33:41;;;;;;;14.60;12.40;;;;;;101080.65;;;;107212;1274;65583;-35
2022/05/01 03:36:09;;;;;;;14.90;13.30;;;;;;101081.38;;;;107266;1274;65691;-34
2022/05/01 03:38:42;;;;;;;13.80;12.20;;;;;;101083.84;;;;107268;1274;67735;-33
2022/05/01 03:41:14;;;;;;;13.90;12.40;;;;;;101084.50;;;;107237;1274;65688;-34
2022/05/01 03:43:44;;;;;;;17.00;12.50;;;;;;101086.39;;;;107245;1274;65569;-30
2022/05/01 03:46:11;;;;;;;15.90;12.30;;;;;;101087.36;;;;107218;1274;65704;-29
2022/05/01 03:48:41;;;;;;;14.70;13.10;;;;;;101084.87;;;;107277;1274;65609;-29
2022/05/01 03:51:09;;;;;;;14.60;12.70;;;;;;101085.55;;;;107282;1274;66030;-30
2022/05/01 03:53:36;;;;;;;13.50;12.10;;;;;;101082.31;;;;107256;1274;65636;-33
2022/05/01 03:56:06;;;;;;;15.50;12.50;;;;;;101083.88;;;;107280;1274;65632;-34
2022/05/01 03:58:34;;;;;;;14.20;12.80;;;;;;101080.92;;;;107216;1274;65698;-36
2022/05/01 04:01:02;;;;;;;13.90;12.50;;;;;;101083.50;;;;107248;1274;65664;-35
2022/05/01 04:03:32;;;;;;;14.00;12.00;;;;;;101082.06;;;;107246;1274;66998;-33
2022/05/01 04:05:59;;;;;;;13.60;12.20;;;;;;101082.00;;;;107239;1274;65576;-35
2022/05/01 04:08:26;;;;;;;14.30;12.70;;;;;;101083.55;;;;107236;1274;65581;-34
2022/05/01 04:10:56;;;;;;;14.60;12.60;;;;;;101081.98;;;;107230;1274;65704;-35
2022/05/01 04:13:26;;;;;;;13.50;12.10;;;;;;101083.95;;;;107269;1274;65667;-34
2022/05/01 04:15:54;;;;;;;13.70;11.70;;;;;;101087.48;;;;104636;1272;3521262;-41
2022/05/01 04:18:21;;;;;;;13.90;12.30;;;;;;101088.13;;;;107227;1274;65689;-35
2022/05/01 04:20:50;;;;;;;16.10;12.80;;;;;;101085.39;;;;107231;1274;65578;-34
2022/05/01 04:23:21;;;;;;;16.80;13.20;;;;;;101086.62;;;;107232;1274;65736;-30
2022/05/01 04:25:49;;;;;;;13.60;12.10;;;;;;101087.05;;;;107274;1274;65696;-29
2022/05/01 04:28:16;;;;;;;13.90;12.10;;;;;;101086.34;;;;107249;1274;66659;-28
2022/05/01 04:30:46;;;;;;;13.30;11.90;;;;;;101082.64;;;;107271;1274;65637;-28
2022/05/01 04:33:15;;;;;;;14.20;12.30;;;;;;101084.66;;;;107248;1274;65550;-29
2022/05/01 04:35:50;;;;;;;14.70;12.40;;;;;;101085.82;;;;107246;1274;65733;-29
2022/05/01 04:38:23;;;;;;;14.30;12.80;;;;;;101084.36;;;;107286;1274;65521;-29
2022/05/01 04:40:55;;;;;;;14.30;12.80;;;;;;101085.06;;;;107255;1274;67959;-28
2022/05/01 04:43:25;;;;;;;14.20;12.50;;;;;;101086.52;;;;107272;1274;65543;-34
2022/05/01 04:45:57;;;;;;;14.20;12.30;;;;;;101086.87;;;;107247;1274;65583;-34
2022/05/01 04:48:27;;;;;;;15.00;12.80;;;;;;101088.75;;;;107211;1274;65550;-28
2022/05/01 04:50:59;;;;;;;13.30;11.90;;;;;;101088.55;;;;107264;1274;65650;-28
2022/05/01 04:53:30;;;;;;;13.70;12.30;;;;;;101088.30;;;;107244;1274;68533;-29
2022/05/01 04:57:04;;;;;;;13.90;12.40;;;;;;101085.80;;;;107255;1274;65576;-28
2022/05/01 04:58:47;;;;;;;13.60;12.20;;;;;;101083.11;;;;107258;1274;65630;-27
2022/05/01 05:01:19;;;;;;;14.00;12.60;;;;;;101084.64;;;;107217;1274;65712;-29
2022/05/01 05:03:46;;;;;;;13.60;12.20;;;;;;101087.60;;;;107274;1274;65576;-34
2022/05/01 05:06:17;;;;;;;14.10;12.50;;;;;;101086.42;;;;107269;1274;65706;-34
2022/05/01 05:11:33;;;;;;;14.80;12.30;;;;;;101082.17;;;;107250;1274;65616;-33
2022/05/01 05:14:00;;;;;;;14.60;12.30;;;;;;101082.56;;;;107227;1274;65736;-35
2022/05/01 05:16:31;;;;;;;14.10;12.30;;;;;;101080.55;;;;107242;1273;65655;-35
2022/05/01 05:19:01;;;;;;;13.30;11.50;;;;;;101079.36;;;;107245;1274;67003;-35
2022/05/01 05:21:28;;;;;;;13.60;12.10;;;;;;101082.64;;;;107244;1274;65694;-33
2022/05/01 05:23:56;;;;;;;13.00;11.60;;;;;;101079.64;;;;107216;1274;66141;-28
2022/05/01 05:26:26;;;;;;;13.60;12.20;;;;;;101081.34;;;;107252;1274;65818;-34
2022/05/01 05:28:53;;;;;;;13.50;11.80;;;;;;101080.36;;;;107289;1274;65615;-27
2022/05/01 05:31:20;;;;;;;13.70;12.00;;;;;;101080.76;;;;107270;1274;67239;-28
2022/05/01 05:33:48;;;;;;;13.50;11.80;;;;;;101086.14;;;;107227;1274;65601;-27
2022/05/01 05:36:15;;;;;;;15.50;12.60;;;;;;101086.09;;;;107238;1274;65586;-27
2022/05/01 05:38:46;;;;;;;12.70;11.10;;;;;;101085.60;;;;107279;1274;65636;-35
2022/05/01 05:41:13;;;;;;;12.60;11.00;;;;;;101088.05;;;;107251;1274;65527;-28
2022/05/01 05:43:43;;;;;;;12.80;10.70;;;;;;101087.27;;;;107251;1274;65991;-34
2022/05/01 05:46:10;;;;;;;13.50;11.70;;;;;;101088.34;;;;107232;1274;65871;-33
2022/05/01 05:48:38;;;;;;;13.30;11.20;;;;;;101085.41;;;;107245;1274;65570;-27
2022/05/01 05:51:05;;;;;;;14.40;11.30;;;;;;101084.80;;;;107228;1274;65569;-27
2022/05/01 05:53:35;;;;;;;13.00;10.80;;;;;;101084.58;;;;107283;1274;65670;-34
2022/05/01 05:56:05;;;;;;;13.50;11.60;;;;;;101086.02;;;;107250;1274;66972;-49
2022/05/01 05:58:35;;;;;;;15.00;12.40;;;;;;101091.09;;;;107240;1274;65684;-28
2022/05/01 06:01:03;;;;;;;13.50;10.80;;;;;;101095.05;;;;107234;1274;65666;-28
2022/05/01 06:03:31;;;;;;;14.40;11.20;;;;;;101096.98;;;;107239;1274;65585;-34
2022/05/01 06:06:01;;;;;;;13.70;11.60;;;;;;101099.02;;;;107249;1274;65686;-34
2022/05/01 06:08:28;;;;;;;12.60;11.10;;;;;;101098.02;;;;107223;1273;67241;-27
2022/05/01 06:10:59;;;;;;;14.40;11.10;;;;;;101100.01;;;;107224;1274;65636;-28
2022/05/01 06:13:26;;;;;;;14.60;11.30;;;;;;101099.35;;;;107244;1274;65670;-33
2022/05/01 06:15:57;;;;;;;16.50;11.10;;;;;;101100.09;;;;107229;1274;65921;-34
2022/05/01 06:18:24;;;;;;;14.90;11.10;;;;;;101100.83;;;;107287;1274;65669;-33
2022/05/01 06:20:54;;;;;;;14.10;10.50;;;;;;101101.30;;;;107282;1274;66926;-34
2022/05/01 06:23:22;;;;;;;13.80;11.00;;;;;;101107.25;;;;107254;1274;65596;-28
2022/05/01 06:25:53;;;;;;;14.10;10.70;;;;;;101105.39;;;;107237;1274;65668;-27
2022/05/01 06:28:20;;;;;;;13.00;10.80;;;;;;101102.69;;;;107195;1274;65665;-33
2022/05/01 06:30:51;;;;;;;15.70;10.90;;;;;;101105.35;;;;107241;1274;65582;-34
2022/05/01 06:33:22;;;;;;;13.40;11.10;;;;;;101109.01;;;;107249;1274;67133;-33
2022/05/01 06:35:54;;;;;;;15.40;10.80;;;;;;101107.86;;;;107234;1274;65604;-34
2022/05/01 06:38:22;;;;;;;13.80;10.70;;;;;;101106.84;;;;107270;1274;65691;-34
2022/05/01 06:40:53;;;;;;;12.90;10.90;;;;;;101107.56;;;;107244;1274;65544;-34
2022/05/01 06:43:20;;;;;;;13.50;10.80;;;;;;101106.97;;;;107276;1274;65594;-34
2022/05/01 06:45:49;;;;;;;15.20;10.90;;;;;;101106.38;;;;107272;1274;67268;-33
2022/05/01 06:48:16;;;;;;;12.90;10.90;;;;;;101106.54;;;;107266;1274;65719;-28
2022/05/01 06:50:46;;;;;;;15.90;11.20;;;;;;101107.66;;;;107240;1274;65643;-27
2022/05/01 06:53:16;;;;;;;14.60;11.00;;;;;;101108.36;;;;107247;1274;65541;-27
2022/05/01 06:55:44;;;;;;;15.00;11.30;;;;;;101105.98;;;;107274;1274;65716;-28
2022/05/01 06:58:11;;;;;;;16.50;10.60;;;;;;101106.00;;;;107222;1274;67250;-28
2022/05/01 07:00:41;;;;;;;16.50;11.60;;;;;;101108.20;;;;107224;1274;65697;-27
2022/05/01 07:03:08;;;;;;;14.70;11.30;;;;;;101106.23;;;;107261;1274;65583;-34
2022/05/01 07:05:36;;;;;;;13.40;10.50;;;;;;101103.34;;;;107234;1272;65695;-34
2022/05/01 07:08:03;;;;;;;16.00;11.70;;;;;;101103.47;;;;107263;1274;65703;-27
2022/05/01 07:10:31;;;;;;;12.90;10.10;;;;;;101101.59;;;;107282;1274;66214;-27
2022/05/01 07:13:01;;;;;;;14.80;10.50;;;;;;101101.33;;;;107226;1274;65689;-34
2022/05/01 07:15:31;;;;;;;14.00;10.40;;;;;;101099.12;;;;107228;1274;65739;-34
2022/05/01 07:18:01;;;;;;;15.90;10.40;;;;;;101099.58;;;;107245;1274;65591;-34
2022/05/01 07:20:29;;;;;;;14.90;10.70;;;;;;101098.91;;;;107263;1274;65452;-34
2022/05/01 07:22:59;;;;;;;14.20;10.10;;;;;;101099.84;;;;107274;1274;66965;-34
2022/05/01 07:25:26;;;;;;;15.70;11.00;;;;;;101101.79;;;;107218;1274;65732;-33
2022/05/01 07:27:57;;;;;;;14.70;11.10;;;;;;101101.64;;;;107247;1274;65547;-28
2022/05/01 07:30:24;;;;;;;15.20;10.20;;;;;;101099.77;;;;107231;1274;65679;-28
2022/05/01 07:32:54;;;;;;;14.70;10.70;;;;;;101098.77;;;;107260;1274;65443;-33
2022/05/01 07:35:22;;;;;;;14.90;10.40;;;;;;101100.98;;;;107266;1274;65731;-34
2022/05/01 07:37:49;;;;;;;13.80;9.80;;;;;;101102.86;;;;107215;1274;65688;-33
2022/05/01 07:40:24;;;;;;;15.10;10.00;;;;;;101105.01;;;;107253;1274;65692;-34
2022/05/01 07:42:51;;;;;;;12.80;9.10;;;;;;101105.73;;;;107271;1273;65690;-27
2022/05/01 07:45:18;;;;;;;13.30;9.30;;;;;;101104.94;;;;107258;1274;65761;-28
2022/05/01 07:47:46;;;;;;;12.40;9.20;;;;;;101105.84;;;;107269;1272;66728;-35
2022/05/01 07:50:17;;;;;;;12.40;8.60;;;;;;101105.98;;;;107233;1274;65639;-33
2022/05/01 07:52:44;;;;;;;12.70;9.00;;;;;;101102.86;;;;107253;1273;65559;-33
2022/05/01 07:55:14;;;;;;;11.60;8.20;;;;;;101101.08;;;;107155;1274;65623;-34
2022/05/01 07:57:42;;;;;;;12.10;8.20;;;;;;101098.45;;;;107264;1274;65417;-33
2022/05/01 08:00:13;;;;;;;11.90;7.90;;;;;;101096.80;;;;107281;1273;66970;-34
2022/05/01 08:05:29;;;;;;;11.90;8.20;;;;;;101089.64;;;;107283;1274;65582;-27
2022/05/01 08:07:58;;;;;;;10.40;7.30;;;;;;101090.27;;;;107254;1274;65585;-26
2022/05/01 08:10:25;;;;;;;10.60;7.60;;;;;;101089.17;;;;107296;1274;65665;-28
2022/05/01 08:12:58;;;;;;;10.90;7.40;;;;;;101089.49;;;;107245;1274;66803;-29
2022/05/01 08:15:25;;;;;;;9.70;7.40;;;;;;101083.95;;;;107241;1274;65560;-28
2022/05/01 08:21:05;;;;;;;8.90;6.60;;;;;;101081.98;;;;107249;1274;64414;-34
2022/05/01 08:23:40;;;;;;;8.60;6.50;;;;;;101082.52;;;;107217;1274;65563;-28
2022/05/01 08:26:10;;;;;;;9.50;6.50;;;;;;101083.41;;;;107268;1272;66633;-28
2022/05/01 08:28:42;;;;;;;9.30;6.50;;;;;;101083.10;;;;107224;1274;66095;-33
2022/05/01 08:31:09;;;;;;;9.00;6.30;;;;;;101083.30;;;;107240;1274;66115;-34
2022/05/01 08:33:37;;;;;;;8.30;6.00;;;;;;101084.27;;;;107184;1274;65550;-27
2022/05/01 08:36:08;;;;;;;8.20;5.30;;;;;;101076.80;;;;107251;1274;65681;-28
2022/05/01 08:38:38;;;;;;;8.60;5.70;;;;;;101075.02;;;;107285;1274;65601;-34
2022/05/01 08:41:07;;;;;;;7.50;5.40;;;;;;101074.67;;;;107284;1274;65691;-28
2022/05/01 08:43:36;;;;;;;6.80;5.30;;;;;;101076.46;;;;107262;1274;66721;-33
2022/05/01 08:46:30;;;;;;;7.10;4.90;;;;;;101072.90;;;;107268;1274;65685;-33
2022/05/01 08:49:03;;;;;;;7.30;5.00;;;;;;101069.05;;;;107274;1274;65566;-34
2022/05/01 08:51:33;;;;;;;9.00;4.80;;;;;;101065.69;;;;107272;1274;68434;-32
2022/05/01 08:54:05;;;;;;;8.40;5.40;;;;;;101061.65;;;;107285;1274;65573;-34
2022/05/01 08:56:38;;;;;;;6.20;4.40;;;;;;101059.15;;;;107269;1274;65564;-33
2022/05/01 08:59:15;;;;;;;6.50;4.50;;;;;;101062.40;;;;107270;1274;65544;-27
2022/05/01 09:01:45;;;;;;;7.70;5.00;;;;;;101061.17;;;;107260;1274;65642;-31
2022/05/01 09:04:14;;;;;;;5.60;4.20;;;;;;101054.98;;;;107268;1274;68319;-38
2022/05/01 09:06:46;;;;;;;6.70;4.60;;;;;;101049.40;;;;107273;1274;65538;-32
2022/05/01 09:09:19;;;;;;;6.80;4.80;;;;;;101047.81;;;;107255;1274;65557;-27
2022/05/01 09:14:36;;;;;;;6.40;4.20;;;;;;101052.02;;;;107281;1274;65681;-33
2022/05/01 09:17:17;;;;;;;6.10;4.20;;;;;;101046.02;;;;107289;1274;66759;-33
2022/05/01 09:19:51;;;;;;;6.10;4.20;;;;;;101049.23;;;;107218;1272;65695;-33
2022/05/01 09:22:19;;;;;;;5.60;4.00;;;;;;101049.90;;;;107264;1274;65348;-33
2022/05/01 09:24:52;;;;;;;6.30;4.50;;;;;;101047.48;;;;107262;1274;65547;-33
2022/05/01 09:27:32;;;;;;;6.30;4.00;;;;;;101042.34;;;;107187;1274;65612;-33
2022/05/01 09:30:19;;;;;;;6.30;4.20;;;;;;101041.67;;;;107282;1274;68081;-33
2022/05/01 09:32:54;;;;;;;6.80;4.20;;;;;;101039.23;;;;107278;1274;65669;-27
2022/05/01 09:35:35;;;;;;;6.20;3.40;;;;;;101037.60;;;;107229;1274;65730;-27
2022/05/01 09:38:21;;;;;;;6.40;3.80;;;;;;101032.65;;;;107254;1274;65810;-33
2022/05/01 09:41:01;;;;;;;5.00;3.30;;;;;;101033.59;;;;107280;1274;65757;-28
2022/05/01 09:43:35;;;;;;;6.90;4.00;;;;;;101029.96;;;;107233;1271;67935;-34
2022/05/01 09:46:22;;;;;;;5.50;3.70;;;;;;101026.42;;;;107237;1274;65653;-34
2022/05/01 09:49:13;;;;;;;6.10;3.90;;;;;;101027.32;;;;107244;1274;65681;-28
2022/05/01 09:52:04;;;;;;;5.00;3.40;;;;;;101028.71;;;;107230;1274;65652;-27
2022/05/01 09:54:34;;;;;;;6.10;3.70;;;;;;101022.23;;;;107255;1274;65581;-27
2022/05/01 09:57:02;;;;;;;6.30;3.70;;;;;;101020.55;;;;107231;1274;68189;-28
2022/05/01 09:59:45;;;;;;;5.30;3.20;;;;;;101024.58;;;;107225;1274;65642;-26
2022/05/01 10:02:12;;;;;;;5.60;3.50;;;;;;101023.77;;;;107277;1274;65579;-28
2022/05/01 10:04:41;;;;;;;5.30;3.40;;;;;;101017.93;;;;107245;1274;65781;-31
2022/05/01 10:07:09;;;;;;;5.30;3.80;;;;;;101019.00;;;;107275;1274;65380;-34
2022/05/01 10:09:40;;;;;;;5.90;3.30;;;;;;101019.71;;;;107192;1274;65899;-37
2022/05/01 10:12:10;;;;;;;5.30;3.70;;;;;;101019.40;;;;107262;1274;65662;-30
2022/05/01 10:14:37;;;;;;;5.90;3.50;;;;;;101014.90;;;;107225;1274;65579;-27
2022/05/01 10:17:06;;;;;;;4.70;3.30;;;;;;101017.77;;;;107256;1274;65567;-27
2022/05/01 10:19:34;;;;;;;5.60;3.40;;;;;;101018.20;;;;107274;1274;65819;-26
2022/05/01 10:22:03;;;;;;;6.00;3.30;;;;;;101013.86;;;;107239;1274;66028;-33
2022/05/01 10:24:34;;;;;;;5.40;3.40;;;;;;101006.91;;;;107255;1274;65749;-34
2022/05/01 10:27:33;;;;;;;5.00;3.00;;;;;;101008.27;;;;107280;1273;65683;-41
2022/05/01 10:33:49;;;;;;;5.40;3.40;;;;;;101006.06;;;;107244;1274;64365;-34
2022/05/01 10:36:35;;;;;;;5.30;3.10;;;;;;100999.63;;;;107241;1274;68218;-35
2022/05/01 10:39:16;;;;;;;5.60;3.40;;;;;;100993.70;;;;107250;1274;65652;-34
2022/05/01 10:41:45;;;;;;;4.90;3.20;;;;;;100993.92;;;;107242;1274;65551;-31
2022/05/01 10:44:37;;;;;;;5.00;3.70;;;;;;100993.09;;;;107218;1274;65793;-28
2022/05/01 10:47:35;;;;;;;5.50;3.30;;;;;;100990.41;;;;107238;1274;65601;-28
2022/05/01 10:50:11;;;;;;;5.10;3.30;;;;;;100984.42;;;;107271;1273;68065;-27
2022/05/01 10:53:05;;;;;;;5.30;3.20;;;;;;100986.94;;;;107246;1274;65602;-34
2022/05/01 10:55:53;;;;;;;5.00;3.20;;;;;;100982.70;;;;107264;1273;65685;-33
2022/05/01 10:58:32;;;;;;;4.90;3.30;;;;;;100980.08;;;;107232;1274;65670;-36
2022/05/01 11:01:03;;;;;;;5.60;3.20;;;;;;100971.54;;;;107238;1274;65563;-34
2022/05/01 11:03:35;;;;;;;5.30;3.10;;;;;;100971.73;;;;107261;1273;68040;-27
2022/05/01 11:06:02;;;;;;;4.60;2.90;;;;;;100970.53;;;;107250;1274;65544;-27
2022/05/01 11:08:34;;;;;;;4.80;2.90;;;;;;100970.78;;;;107286;1273;65560;-34
2022/05/01 11:11:02;;;;;;;5.60;3.00;;;;;;100967.24;;;;107227;1274;65533;-33
2022/05/01 11:13:32;;;;;;;4.60;2.70;;;;;;100968.52;;;;107258;1273;65658;-34
2022/05/01 11:16:05;;;;;;;5.70;3.30;;;;;;100963.50;;;;107247;1274;66544;-33
2022/05/01 11:18:41;;;;;;;4.60;2.70;;;;;;100961.90;;;;107261;1274;66251;-27
2022/05/01 11:21:24;;;;;;;4.80;2.90;;;;;;100959.45;;;;107234;1274;65570;-27
2022/05/01 11:24:02;;;;;;;6.50;3.00;;;;;;100956.27;;;;107239;1274;65714;-27
2022/05/01 11:26:32;;;;;;;5.00;2.80;;;;;;100958.08;;;;107263;1274;65598;-28
2022/05/01 11:29:10;;;;;;;4.50;2.80;;;;;;100958.69;;;;107305;1274;67266;-27
2022/05/01 11:31:37;;;;;;;5.00;3.20;;;;;;100950.02;;;;107271;1274;65692;-27
2022/05/01 11:34:16;;;;;;;4.70;2.70;;;;;;100948.45;;;;107240;1274;65663;-28
2022/05/01 11:36:54;;;;;;;5.60;2.80;;;;;;100946.05;;;;107220;1274;65690;-32
2022/05/01 11:39:21;;;;;;;5.10;2.70;;;;;;100947.30;;;;107270;1273;65707;-35
2022/05/01 11:42:00;;;;;;;4.40;2.80;;;;;;100946.59;;;;107277;1273;66027;-28
2022/05/01 11:44:31;;;;;;;5.80;2.90;;;;;;100940.66;;;;107242;1274;65858;-29
2022/05/01 11:47:01;;;;;;;4.60;3.10;;;;;;100936.52;;;;107233;1274;65688;-28
2022/05/01 11:49:41;;;;;;;4.80;2.80;;;;;;100932.34;;;;107135;1273;65689;-27
2022/05/01 11:52:16;;;;;;;4.20;2.50;;;;;;100930.29;;;;107289;1274;65807;-36
2022/05/01 11:55:06;;;;;;;4.20;2.40;;;;;;100925.88;;;;107244;1274;66939;-27
2022/05/01 12:03:05;;;;;;;4.80;2.80;;;;;;100924.77;;;;107238;1274;65700;-34
2022/05/01 12:05:46;;;;;;;4.80;2.80;;;;;;100921.48;;;;107245;1274;65583;-34
2022/05/01 12:08:14;;;;;;;4.30;2.80;;;;;;100919.93;;;;107258;1274;68547;-28
2022/05/01 12:10:43;;;;;;;4.00;2.60;;;;;;100920.83;;;;107241;1273;65555;-27
2022/05/01 12:13:23;;;;;;;4.00;2.60;;;;;;100918.70;;;;107266;1273;66629;-33
2022/05/01 12:15:54;;;;;;;4.80;2.80;;;;;;100919.44;;;;104852;1274;3230471;-27
2022/05/01 12:18:23;;;;;;;4.10;2.80;;;;;;100920.30;;;;107274;1274;65679;-33
2022/05/01 12:20:51;;;;;;;4.90;2.70;;;;;;100915.13;;;;107279;1274;66219;-34
2022/05/01 12:23:22;;;;;;;4.50;2.80;;;;;;100917.01;;;;107233;1274;65751;-33
2022/05/01 12:25:52;;;;;;;4.80;2.90;;;;;;100923.09;;;;107218;1274;65531;-35
2022/05/01 12:28:20;;;;;;;4.00;2.50;;;;;;100916.81;;;;107221;1274;65567;-33
2022/05/01 12:30:51;;;;;;;4.40;2.50;;;;;;100915.17;;;;107279;1274;65716;-34
2022/05/01 12:33:24;;;;;;;4.50;2.50;;;;;;100911.30;;;;107259;1274;66082;-27
2022/05/01 12:35:53;;;;;;;5.40;2.90;;;;;;100906.54;;;;107239;1274;65764;-28
2022/05/01 12:38:21;;;;;;;4.20;2.50;;;;;;100901.20;;;;107240;1274;65647;-34
2022/05/01 12:43:52;;;;;;;4.40;2.60;;;;;;100893.93;;;;107262;1274;65688;-45
2022/05/01 12:46:25;;;;;;;4.40;2.60;;;;;;100893.71;;;;107252;1274;68609;-28
2022/05/01 12:48:53;;;;;;;4.10;2.30;;;;;;100891.04;;;;107268;1274;65519;-28
2022/05/01 12:51:20;;;;;;;4.30;2.60;;;;;;100887.27;;;;107258;1274;65787;-28
2022/05/01 12:53:48;;;;;;;4.80;2.50;;;;;;100883.63;;;;107228;1274;65574;-28
2022/05/01 12:56:23;;;;;;;4.70;2.60;;;;;;100882.48;;;;107242;1274;65675;-26
2022/05/01 12:58:53;;;;;;;4.20;2.50;;;;;;100882.14;;;;107209;1274;66709;-27
2022/05/01 13:01:23;;;;;;;4.20;2.60;;;;;;100882.94;;;;107259;1274;65604;-27
2022/05/01 13:03:55;;;;;;;4.40;2.80;;;;;;100877.71;;;;107244;1274;65534;-27
2022/05/01 13:06:25;;;;;;;4.30;2.70;;;;;;100876.08;;;;107150;1274;65709;-27
2022/05/01 13:08:58;;;;;;;4.50;2.70;;;;;;100877.42;;;;107272;1274;65544;-27
2022/05/01 13:11:31;;;;;;;5.20;3.00;;;;;;100873.71;;;;107264;1274;68388;-27
2022/05/01 13:14:10;;;;;;;5.60;3.30;;;;;;100870.65;;;;107282;1274;65643;-33
2022/05/01 13:16:44;;;;;;;5.00;2.90;;;;;;100863.29;;;;107252;1274;65592;-34
2022/05/01 13:19:18;;;;;;;5.40;2.80;;;;;;100861.38;;;;107262;1274;65651;-35
2022/05/01 13:21:54;;;;;;;4.40;2.50;;;;;;100859.73;;;;107260;1274;65585;-32
2022/05/01 13:24:31;;;;;;;4.10;2.60;;;;;;100858.85;;;;107227;1274;67244;-33
2022/05/01 13:27:09;;;;;;;5.50;2.70;;;;;;100855.54;;;;107229;1274;65569;-35
2022/05/01 13:29:39;;;;;;;4.60;2.80;;;;;;100857.76;;;;107300;1274;66307;-34
2022/05/01 13:32:08;;;;;;;4.40;2.70;;;;;;100853.45;;;;107179;1274;65654;-27
2022/05/01 13:34:42;;;;;;;4.30;3.10;;;;;;100849.54;;;;107277;1274;65567;-28